x

Cape Elizabeth- 45nm Nw Of Aberdeen, Wa (46041) Wave Buoy

7:50 - Sat 5th Sep 2015 All times are PDT. -7 hours from GMT.

  • Sig Wave height 3.6ft
  • Swell Direction
  • Peak Period 8s
  • Average Period 6s
  • Wind
    2mph, 4mph gusts
  • Sea Temp 58°f
  • Aire Temp 58°f
  • Sea Pressure 1018.1mb
  • Cape Elizabeth- 45nm Nw Of Aberdeen, Wa
  • Cape Elizabeth- 45nm Nw Of Aberdeen, Wa

More Historic Weather Station data

Upgrade to MSW Pro to gain access to the past 30 days of data for over 8000 Wavebouys and Weather Stations around the globe.

Join Pro

Comparision Forecast

View Surf forecast
   
sáb 09/05 7:50 3.5ft 8s 6s 2 4 mph 1018.1mb 58f 58f
6:50 3.5ft 12s 6s 4
mph
1017.7mb 58f 57f
5:50 3.5ft 12s 6s 4 7 mph 1017.4mb 58f 57f
4:50 3.5ft 7s 6s 7 9 mph 1017.1mb 58f 57f
3:50 3.5ft 8s 6s 9 11 mph 1017mb 58f 58f
2:50 4.5ft 8s 6s 9 11 mph 1016.9mb 58f 58f
1:50 4ft 8s 6s 9 11 mph 1016.9mb 58f 58f
12:50 4.5ft 8s 5s 11 13 mph 1017.2mb 58f 58f
vie 09/04 11:50 4.5ft 8s 5s 16 18 mph 1016.7mb 58f 58f
10:50 5ft 8s 5s 16 18 mph 1016.9mb 59f 58f
9:50 5ft 8s 5s 18 22 mph 1016.6mb 60f 58f
8:50 5ft 8s 5s 18 22 mph 1016.5mb 60f 58f
7:50 5ft 8s 5s 20 22 mph 1015.9mb 60f 59f
6:50 5ft 12s 5s 20 22 mph 1015.7mb 60f 59f
5:50 4.5ft 8s 5s 20 22 mph 1015.6mb 61f 59f
4:50 4ft 13s 6s 16 20 mph 1015.6mb 61f 59f
3:50 3.5ft 8s 7s 13 16 mph 1015.8mb 61f 58f
2:50 4ft 12s 7s 11
mph
1015.9mb 61f 57f
1:50 4ft 14s 7s 9 11 mph 1016.1mb 61f 56f
12:50 3.5ft 8s 7s 9 11 mph 1016.6mb 61f 56f
11:50 4.5ft 8s 7s 9
mph
1016.8mb 60f 56f
10:50 4.5ft 8s 7s 7 9 mph 1016.7mb 60f 56f
9:50 4.5ft 8s 7s 4 7 mph 1016.3mb 60f 56f
8:50 4.5ft 9s 7s 2 4 mph 1016.4mb 60f 56f
7:50 4.5ft 9s 7s 2 4 mph 1016.3mb 60f 55f
6:50 4.5ft 9s 7s 4
mph
1015.9mb 60f 55f
5:50 5ft 9s 7s 4 7 mph 1015.6mb 60f 55f
4:50 4.5ft 9s 7s 7 9 mph 1015.2mb 60f 55f
3:50 5ft 9s 7s 7 9 mph 1015.2mb 60f 55f
2:50 5ft 9s 8s 7 9 mph 1015.2mb 60f 56f
1:50 5ft 9s 7s 7 9 mph 1015.5mb 60f 56f
12:50 5ft 9s 7s 7 9 mph 1015.7mb 60f 56f
jue 09/03 11:50 5.5ft 9s 7s 7 9 mph 1015.8mb 60f 57f
10:50 6ft 10s 7s 4 7 mph 1015.7mb 61f 59f
9:50 6.5ft 10s 7s 2
mph
1015.8mb 60f 59f
8:50 6ft 10s 7s 4
mph
1015.6mb 61f 59f
7:50 5ft 10s 7s 4
mph
1015.3mb 61f 59f
6:50 5.5ft 10s 7s 4
mph
1015.4mb 61f 60f
5:50 6.5ft 10s 8s 4
mph
1015.3mb 61f 61f
4:50 6ft 10s 8s 4 7 mph 1015.5mb 61f 60f
3:50 6ft 10s 7s 2 4 mph 1015.6mb 61f 60f
2:50 6ft 11s 8s 2 4 mph 1015.7mb 61f 60f
1:50 7ft 11s 8s 7 9 mph 1015.9mb 60f 59f
12:50 7.5ft 10s 8s 11 13 mph 1016mb 60f 57f
11:50 7ft 10s 8s 13 16 mph 1016.3mb 60f 57f
10:50 7ft 9s 8s 9 11 mph 1016.3mb 60f 57f
9:50 7ft 11s 8s 7 9 mph 1016mb 60f 57f
8:50 7.5ft 11s 8s 7 9 mph 1015.9mb 60f 57f
7:50 7ft 11s 8s 7 9 mph 1015.6mb 60f 56f
6:50 6.5ft 11s 7s 9 11 mph 1015.4mb 60f 55f
5:50 7ft 11s 8s 9 16 mph 1014.9mb 60f 56f
4:50 8ft 11s 8s 9 11 mph 1014.8mb 60f 57f
3:50 8ft 11s 8s 2 4 mph 1014.7mb 60f 59f
2:50 7ft 11s 7s 2 4 mph 1014.4mb 60f 59f
1:50 8.5ft 11s 8s 4
mph
1014.6mb 60f 59f
12:50 9ft 11s 8s 4 7 mph 1014.6mb 60f 59f
mié 09/02 11:50 9ft 11s 8s 7 9 mph 1014.6mb 60f 59f
10:50 9.5ft 11s 8s 7 9 mph 1014.8mb 60f 60f
9:50 8ft 12s 8s 4 7 mph 1014.7mb 60f 60f
8:50 9ft 10s 8s 7 9 mph 1014.5mb 60f 60f
7:50 8.5ft 11s 8s 11 13 mph 1014mb 60f 60f
6:50 9ft 11s 8s 9 13 mph 1013.8mb 60f 60f
5:50 8.5ft 12s 8s 11 13 mph 1013.5mb 60f 60f
4:50 9ft 11s 8s 9 13 mph 1013.3mb 60f 60f
3:50 9ft 11s 8s 11 13 mph 1012.9mb 60f 60f
2:50 9ft 12s 8s 13 16 mph 1012.8mb 60f 59f
1:50 9ft 11s 8s 9 11 mph 1012.6mb 60f 60f
12:50 10ft 11s 8s 13 16 mph 1012.6mb 60f 60f
11:50 8ft 11s 7s 13
mph
1012.6mb 59f 60f
10:50 8.5ft 11s 8s 11 13 mph 1012.1mb 59f 60f
9:50 9.5ft 12s 8s 11 13 mph 1011.7mb 59f 59f
8:50 9.5ft 11s 8s 9 11 mph 1011.3mb 58f 59f
7:50 10ft 11s 8s 13 16 mph 1011.1mb 58f 58f
6:50 8ft 11s 8s 11 13 mph 1010.6mb 58f 58f
5:50 9ft 11s 8s 9 11 mph 1010.3mb 58f 60f
4:50 8.5ft 11s 8s 9 11 mph 1010mb 59f 60f
3:50 8ft 11s 8s 9 11 mph 1009.7mb 59f 60f
2:50 8ft 11s 8s 7 9 mph 1009.5mb 59f 60f
1:50 7ft 11s 7s 7 11 mph 1009.4mb 59f 60f
12:50 8ft 11s 8s 9 13 mph 1009.3mb 59f 60f
mar 09/01 11:50 7.5ft 11s 7s 11 13 mph 1009.2mb 59f 59f
10:50 7.5ft 11s 7s 11 13 mph 1009.1mb 59f 59f
9:50 7.5ft 11s 7s 11 16 mph 1009.3mb 60f 60f
8:50 7.5ft 11s 8s 11 13 mph 1009.1mb 60f 60f
7:50 7ft 11s 7s 7 9 mph 1008.8mb 59f 59f
6:50 8ft 12s 8s 13 16 mph 1008.8mb 59f 58f
5:50 8ft 11s 8s 11 13 mph 1008.8mb 60f 60f
4:50 8.5ft 11s 8s 9 11 mph 1009mb 60f 58f